createdAt,value
2022-08-25T00:00:49.204Z,0.90
2022-08-25T00:05:51.488Z,0.85
2022-08-25T00:11:00.370Z,0.75
2022-08-25T00:16:05.204Z,0.77
2022-08-25T00:21:07.542Z,0.88
2022-08-25T00:26:09.882Z,0.95
2022-08-25T00:31:12.720Z,0.70
2022-08-25T00:36:14.659Z,0.80
2022-08-25T00:41:18.481Z,0.77
2022-08-25T00:46:25.626Z,0.80
2022-08-25T00:51:36.880Z,0.90
2022-08-25T00:56:38.456Z,0.80
2022-08-25T01:01:40.149Z,0.80
2022-08-25T01:06:44.533Z,0.70
2022-08-25T01:11:46.688Z,1.00
2022-08-25T01:16:51.231Z,1.25
2022-08-25T01:21:55.608Z,1.55
2022-08-25T01:26:57.157Z,1.33
2022-08-25T01:32:00.655Z,1.20
2022-08-25T01:37:02.443Z,0.95
2022-08-25T01:42:06.901Z,1.00
2022-08-25T01:47:08.677Z,1.02
2022-08-25T01:52:19.402Z,0.93
2022-08-25T01:57:22.909Z,0.95
2022-08-25T02:02:24.538Z,1.42
2022-08-25T02:07:28.061Z,2.35
2022-08-25T02:12:32.184Z,2.20
2022-08-25T02:17:36.645Z,1.90
2022-08-25T02:22:38.204Z,2.00
2022-08-25T02:27:41.661Z,2.10
2022-08-25T02:32:43.246Z,2.20
2022-08-25T02:37:44.730Z,2.05
2022-08-25T02:42:46.215Z,2.03
2022-08-25T02:47:47.809Z,1.80
2022-08-25T02:52:50.808Z,2.55
2022-08-25T02:57:52.274Z,2.47
2022-08-25T03:02:53.949Z,2.05
2022-08-25T03:07:56.258Z,2.03
2022-08-25T03:12:59.369Z,1.75
2022-08-25T03:18:02.291Z,2.17
2022-08-25T03:23:05.854Z,2.30
2022-08-25T03:28:08.089Z,2.65
2022-08-25T03:33:09.963Z,2.38
2022-08-25T03:38:11.616Z,1.75
2022-08-25T03:43:13.687Z,1.95
2022-08-25T03:48:16.390Z,1.98
2022-08-25T03:53:18.418Z,2.45
2022-08-25T03:58:19.884Z,1.88
2022-08-25T04:03:21.362Z,1.80
2022-08-25T04:08:22.982Z,3.08
2022-08-25T04:13:24.517Z,2.25
2022-08-25T04:18:26.181Z,1.52
2022-08-25T04:23:27.698Z,2.20
2022-08-25T04:28:29.641Z,2.13
2022-08-25T04:33:31.141Z,1.80
2022-08-25T04:38:32.961Z,1.67
2022-08-25T04:43:35.609Z,1.55
2022-08-25T04:48:37.131Z,1.35
2022-08-25T04:53:39.021Z,1.58
2022-08-25T04:58:41.210Z,1.50
2022-08-25T05:03:43.162Z,1.40
2022-08-25T05:08:45.929Z,1.67
2022-08-25T05:13:51.438Z,1.80
2022-08-25T05:18:53.669Z,1.75
2022-08-25T05:23:58.366Z,1.58
2022-08-25T05:29:01.288Z,1.83
2022-08-25T05:34:06.752Z,1.65
2022-08-25T05:39:08.253Z,1.50
2022-08-25T05:44:09.831Z,1.65
2022-08-25T05:49:11.312Z,1.90
2022-08-25T05:54:12.817Z,2.08
2022-08-25T05:59:14.318Z,1.35
2022-08-25T06:04:16.281Z,1.25
2022-08-25T06:09:17.737Z,1.27
2022-08-25T06:14:19.925Z,1.48
2022-08-25T06:19:23.463Z,1.23
2022-08-25T06:24:26.062Z,1.40
2022-08-25T06:29:27.818Z,1.40
2022-08-25T06:34:29.386Z,1.20
2022-08-25T06:39:30.877Z,1.40
2022-08-25T06:44:32.384Z,1.20
2022-08-25T06:49:36.213Z,1.27
2022-08-25T06:54:37.980Z,1.17
2022-08-25T06:59:41.560Z,1.08
2022-08-25T07:04:43.173Z,1.48
2022-08-25T07:09:44.651Z,1.38
2022-08-25T07:14:58.061Z,1.00
2022-08-25T07:20:05.497Z,1.10
2022-08-25T07:25:07.376Z,1.40
2022-08-25T07:30:09.286Z,0.90
2022-08-25T07:35:15.800Z,1.30
2022-08-25T07:40:25.274Z,1.30
2022-08-25T07:45:31.022Z,1.20
2022-08-25T07:50:33.279Z,0.88
2022-08-25T07:55:36.634Z,1.25
2022-08-25T08:00:39.656Z,1.05
2022-08-25T08:05:43.773Z,0.90
2022-08-25T08:11:03.266Z,0.98
2022-08-25T08:21:11.543Z,1.10
2022-08-25T08:26:13.112Z,1.08
2022-08-25T08:31:15.939Z,0.90
2022-08-25T08:36:18.579Z,0.80
2022-08-25T08:42:07.697Z,0.90
2022-08-25T08:47:19.031Z,0.90
2022-08-25T08:52:22.841Z,0.70
2022-08-25T08:57:28.286Z,0.80
2022-08-25T09:02:39.218Z,0.77
2022-08-25T09:07:57.937Z,0.88
2022-08-25T09:13:11.839Z,0.60
2022-08-25T09:18:17.109Z,0.93
2022-08-25T09:23:34.514Z,0.70
2022-08-25T09:28:40.968Z,0.90
2022-08-25T09:33:43.650Z,0.60
2022-08-25T09:38:45.146Z,0.57
2022-08-25T09:43:53.649Z,0.40
2022-08-25T09:49:10.887Z,0.60
2022-08-25T09:54:12.832Z,0.57
2022-08-25T09:59:20.270Z,0.50
2022-08-25T10:04:26.094Z,0.57
2022-08-25T10:09:35.076Z,0.55
2022-08-25T10:14:44.329Z,0.45
2022-08-25T10:19:46.181Z,0.45
2022-08-25T10:24:48.960Z,0.52
2022-08-25T10:29:59.556Z,0.60
2022-08-25T10:35:04.732Z,0.50
2022-08-25T10:40:06.241Z,0.50
2022-08-25T10:45:32.113Z,0.50
2022-08-25T10:50:39.993Z,0.50
2022-08-25T10:55:56.162Z,0.50
2022-08-25T11:01:16.267Z,0.50
2022-08-25T11:06:22.274Z,0.63
2022-08-25T11:11:28.763Z,0.88
2022-08-25T11:16:31.077Z,0.60
2022-08-25T11:21:49.777Z,0.60
2022-08-25T11:26:56.171Z,0.50
2022-08-25T11:31:58.938Z,0.60
2022-08-25T11:37:11.308Z,0.80
2022-08-25T11:42:19.176Z,0.80
2022-08-25T11:47:21.247Z,0.70
2022-08-25T11:52:35.705Z,0.50
2022-08-25T11:57:38.162Z,0.68
2022-08-25T12:02:39.646Z,0.60
2022-08-25T12:07:47.082Z,0.45
2022-08-25T12:12:48.568Z,0.40
2022-08-25T12:18:08.855Z,0.80
2022-08-25T12:23:11.262Z,0.70
2022-08-25T12:28:23.360Z,0.70
2022-08-25T12:33:43.276Z,0.50
2022-08-25T12:38:50.913Z,0.50
2022-08-25T12:44:08.904Z,0.50
2022-08-25T12:49:31.765Z,0.50
2022-08-25T12:54:39.669Z,0.60
2022-08-25T12:59:45.814Z,0.50
2022-08-25T13:05:00.707Z,0.60
2022-08-25T13:10:12.993Z,0.63
2022-08-25T13:15:15.955Z,0.70
2022-08-25T13:20:19.564Z,0.85
2022-08-25T13:25:23.175Z,0.77
2022-08-25T13:30:35.266Z,0.73
2022-08-25T13:35:36.842Z,0.55
2022-08-25T13:40:38.486Z,0.63
2022-08-25T13:45:44.900Z,0.77
2022-08-25T13:50:50.134Z,0.60
2022-08-25T13:56:01.542Z,0.70
2022-08-25T14:01:19.715Z,0.63
2022-08-25T14:06:26.102Z,0.73
2022-08-25T14:11:30.647Z,0.90
2022-08-25T14:16:34.928Z,0.50
2022-08-25T14:21:36.508Z,0.80
2022-08-25T14:26:54.572Z,0.90
2022-08-25T14:31:56.849Z,0.60
2022-08-25T14:37:00.213Z,0.63
2022-08-25T14:42:01.682Z,0.60
2022-08-25T14:47:03.825Z,0.70
2022-08-25T14:52:09.487Z,0.60
2022-08-25T14:57:10.950Z,1.23
2022-08-25T15:02:14.281Z,1.02
2022-08-25T15:07:39.619Z,0.90
2022-08-25T15:12:47.872Z,0.70
2022-08-25T15:17:50.292Z,0.60
2022-08-25T15:22:51.917Z,0.60
2022-08-25T15:27:54.053Z,0.90
2022-08-25T15:32:56.513Z,0.50
2022-08-25T15:37:58.117Z,0.70
2022-08-25T15:42:59.605Z,0.50
2022-08-25T15:48:01.069Z,0.70
2022-08-25T15:53:02.593Z,0.63
2022-08-25T15:58:04.086Z,0.75
2022-08-25T16:03:07.036Z,0.52
2022-08-25T16:08:19.220Z,1.25
2022-08-25T16:13:23.030Z,0.68
2022-08-25T16:18:24.553Z,0.70
2022-08-25T16:23:27.123Z,1.00
2022-08-25T16:28:28.752Z,0.60
2022-08-25T16:33:30.333Z,0.70
2022-08-25T16:38:33.922Z,0.55
2022-08-25T16:43:35.508Z,0.50
2022-08-25T16:48:37.979Z,0.60
2022-08-25T16:53:58.273Z,0.50
2022-08-25T16:59:00.701Z,0.90
2022-08-25T17:04:02.601Z,0.52
2022-08-25T17:09:04.801Z,0.80
2022-08-25T17:14:11.102Z,0.77
2022-08-25T17:19:13.957Z,0.47
2022-08-25T17:24:16.795Z,0.70
2022-08-25T17:29:18.888Z,0.57
2022-08-25T17:34:23.085Z,1.10
2022-08-25T17:39:25.465Z,0.60
2022-08-25T17:44:26.970Z,0.77
2022-08-25T17:49:28.512Z,0.50
2022-08-25T17:54:30.001Z,0.65
2022-08-25T17:59:34.444Z,0.63
2022-08-25T18:04:36.466Z,1.20
2022-08-25T18:09:39.269Z,0.60
2022-08-25T18:14:41.017Z,0.80
2022-08-25T18:19:48.641Z,0.80
2022-08-25T18:24:50.471Z,0.90
2022-08-25T18:29:52.049Z,1.00
2022-08-25T18:34:53.681Z,0.70
2022-08-25T18:40:13.769Z,0.40
2022-08-25T18:50:16.894Z,0.50
2022-08-25T18:55:22.036Z,0.65
2022-08-25T19:00:25.482Z,0.30
2022-08-25T19:05:34.469Z,0.60
2022-08-25T19:10:36.623Z,0.30
2022-08-25T19:15:40.097Z,0.57
2022-08-25T19:20:44.725Z,0.40
2022-08-25T19:25:46.635Z,0.60
2022-08-25T19:30:50.546Z,0.30
2022-08-25T19:35:52.417Z,0.40
2022-08-25T19:40:54.095Z,0.60
2022-08-25T19:45:55.672Z,0.68
2022-08-25T19:50:58.409Z,0.52
2022-08-25T19:56:01.666Z,0.50
2022-08-25T20:01:03.318Z,0.50
2022-08-25T20:06:05.272Z,0.40
2022-08-25T20:11:06.773Z,0.47
2022-08-25T20:16:08.297Z,0.43
2022-08-25T20:21:09.843Z,0.60
2022-08-25T20:26:11.641Z,0.50
2022-08-25T20:31:13.289Z,0.50
2022-08-25T20:36:15.158Z,0.88
2022-08-25T20:41:17.313Z,0.32
2022-08-25T20:46:20.094Z,0.70
2022-08-25T20:51:23.489Z,0.55
2022-08-25T20:56:25.248Z,0.73
2022-08-25T21:01:48.761Z,0.55
2022-08-25T21:06:50.570Z,0.75
2022-08-25T21:11:55.769Z,0.60
2022-08-25T21:16:58.751Z,0.50
2022-08-25T21:22:00.451Z,0.70
2022-08-25T21:27:02.006Z,0.50
2022-08-25T21:32:03.982Z,0.70
2022-08-25T21:37:05.494Z,0.55
2022-08-25T21:42:07.521Z,0.60
2022-08-25T21:47:10.906Z,0.77
2022-08-25T21:52:12.436Z,0.70
2022-08-25T21:57:14.009Z,0.75
2022-08-25T22:02:19.324Z,0.75
2022-08-25T22:07:24.463Z,0.70
2022-08-25T22:12:26.358Z,0.77
2022-08-25T22:17:28.126Z,0.80
2022-08-25T22:22:30.173Z,0.70
2022-08-25T22:27:31.872Z,0.73
2022-08-25T22:32:33.373Z,0.82
2022-08-25T22:37:35.530Z,0.80
2022-08-25T22:42:37.031Z,0.70
2022-08-25T22:47:38.501Z,0.75
2022-08-25T22:52:42.749Z,0.73
2022-08-25T22:57:44.685Z,0.77
2022-08-25T23:02:46.710Z,0.68
2022-08-25T23:07:48.254Z,0.55
2022-08-25T23:12:49.818Z,1.05
2022-08-25T23:17:52.016Z,1.00
2022-08-25T23:22:54.036Z,0.70
2022-08-25T23:27:55.565Z,1.05
2022-08-25T23:32:57.892Z,0.90
2022-08-25T23:37:59.393Z,1.00
2022-08-25T23:43:01.018Z,0.70
2022-08-25T23:48:04.523Z,0.98
2022-08-25T23:53:06.448Z,1.05
2022-08-25T23:58:08.056Z,1.30
